AVA242 SKBO-TNCA
Flight info
| Callsign | AVA242 |
|---|---|
| Flight time | 1h 23m |
| Altitude | 39000 |
| Route | OSUSU4R KOVBU UW1 ENPUT UW567 NOREX NOREX2A |
| Aircraft | A20N/M-SDE2E3FGHIJ1RWXY/LB1 |
Departure
| Time | 2026-05-08 13:18 |
|---|---|
| Airport | El Dorado International Airport (SKBO) |
Arrival
| Time | 2026-05-08 14:42 |
|---|---|
| Airport | Queen Beatrix International Airport (TNCA) |
| Time | Latitude | Longitude | Altitude | Speed | Heading |
|---|---|---|---|---|---|
| 2026-05-08 12:17 | 4.69826 | -74.13922 | 8369 ft | 0 kts | 217° |
| 2026-05-08 12:18 | 4.69836 | -74.13915 | 8369 ft | 0 kts | 217° |
| 2026-05-08 13:03 | 4.69837 | -74.13914 | 8369 ft | 1 kts | 217° |
| 2026-05-08 13:03 | 4.69855 | -74.13901 | 8369 ft | 3 kts | 216° |
| 2026-05-08 13:04 | 4.69874 | -74.13887 | 8369 ft | 3 kts | 216° |
| 2026-05-08 13:04 | 4.69889 | -74.13876 | 8369 ft | 3 kts | 242° |
| 2026-05-08 13:04 | 4.69892 | -74.13857 | 8369 ft | 3 kts | 298° |
| 2026-05-08 13:04 | 4.69879 | -74.13839 | 8369 ft | 3 kts | 307° |
| 2026-05-08 13:05 | 4.69875 | -74.13834 | 8369 ft | 0 kts | 307° |
| 2026-05-08 13:09 | 4.69881 | -74.13842 | 8369 ft | 2 kts | 308° |
| 2026-05-08 13:09 | 4.69901 | -74.13864 | 8369 ft | 7 kts | 319° |
| 2026-05-08 13:09 | 4.69955 | -74.13854 | 8369 ft | 9 kts | 24° |
| 2026-05-08 13:09 | 4.69995 | -74.13870 | 8369 ft | 6 kts | 308° |
| 2026-05-08 13:10 | 4.70019 | -74.13903 | 8369 ft | 6 kts | 308° |
| 2026-05-08 13:10 | 4.70041 | -74.13931 | 8369 ft | 5 kts | 307° |
| 2026-05-08 13:10 | 4.70069 | -74.13970 | 8369 ft | 9 kts | 307° |
| 2026-05-08 13:10 | 4.70133 | -74.13970 | 8369 ft | 10 kts | 27° |
| 2026-05-08 13:11 | 4.70173 | -74.13989 | 8369 ft | 7 kts | 306° |
| 2026-05-08 13:11 | 4.70209 | -74.14038 | 8369 ft | 10 kts | 308° |
| 2026-05-08 13:11 | 4.70257 | -74.14103 | 8369 ft | 13 kts | 308° |
| 2026-05-08 13:11 | 4.70316 | -74.14181 | 8369 ft | 15 kts | 308° |
| 2026-05-08 13:12 | 4.70380 | -74.14266 | 8369 ft | 16 kts | 307° |
| 2026-05-08 13:12 | 4.70449 | -74.14354 | 8370 ft | 16 kts | 308° |
| 2026-05-08 13:12 | 4.70518 | -74.14447 | 8370 ft | 17 kts | 307° |
| 2026-05-08 13:12 | 4.70588 | -74.14539 | 8370 ft | 16 kts | 308° |
| 2026-05-08 13:13 | 4.70654 | -74.14625 | 8370 ft | 15 kts | 306° |
| 2026-05-08 13:13 | 4.70714 | -74.14706 | 8370 ft | 14 kts | 306° |
| 2026-05-08 13:13 | 4.70773 | -74.14784 | 8370 ft | 14 kts | 307° |
| 2026-05-08 13:13 | 4.70834 | -74.14864 | 8370 ft | 15 kts | 307° |
| 2026-05-08 13:14 | 4.70898 | -74.14950 | 8369 ft | 16 kts | 308° |
| 2026-05-08 13:14 | 4.70965 | -74.15037 | 8369 ft | 16 kts | 307° |
| 2026-05-08 13:14 | 4.71027 | -74.15120 | 8369 ft | 14 kts | 307° |
| 2026-05-08 13:14 | 4.71081 | -74.15193 | 8370 ft | 12 kts | 307° |
| 2026-05-08 13:15 | 4.71150 | -74.15215 | 8369 ft | 10 kts | 354° |
| 2026-05-08 13:15 | 4.71207 | -74.15221 | 8370 ft | 0 kts | 354° |
| 2026-05-08 13:16 | 4.71218 | -74.15222 | 8369 ft | 8 kts | 354° |
| 2026-05-08 13:16 | 4.71293 | -74.15221 | 8369 ft | 11 kts | 22° |
| 2026-05-08 13:16 | 4.71318 | -74.15179 | 8369 ft | 7 kts | 110° |
| 2026-05-08 13:16 | 4.71304 | -74.15159 | 8368 ft | 0 kts | 127° |
| 2026-05-08 13:17 | 4.71298 | -74.15151 | 8368 ft | 10 kts | 127° |
| 2026-05-08 13:17 | 4.71136 | -74.14937 | 8367 ft | 66 kts | 127° |
| 2026-05-08 13:18 | 4.70757 | -74.14437 | 8371 ft | 117 kts | 127° |
| 2026-05-08 13:18 | 4.70150 | -74.13636 | 8369 ft | 166 kts | 127° |
| 2026-05-08 13:18 | 4.69385 | -74.12638 | 8516 ft | 187 kts | 125° |
| 2026-05-08 13:18 | 4.68572 | -74.11624 | 8976 ft | 190 kts | 127° |
| 2026-05-08 13:19 | 4.67885 | -74.10520 | 9506 ft | 189 kts | 103° |
| 2026-05-08 13:19 | 4.68062 | -74.09242 | 10089 ft | 189 kts | 59° |
| 2026-05-08 13:19 | 4.69135 | -74.08455 | 10399 ft | 204 kts | 15° |
| 2026-05-08 13:19 | 4.70596 | -74.08558 | 10624 ft | 225 kts | 347° |
| 2026-05-08 13:20 | 4.72194 | -74.08708 | 10840 ft | 238 kts | 13° |
| 2026-05-08 13:20 | 4.73833 | -74.08240 | 11201 ft | 250 kts | 21° |
| 2026-05-08 13:20 | 4.75493 | -74.07658 | 11799 ft | 254 kts | 22° |
| 2026-05-08 13:20 | 4.77170 | -74.07053 | 12524 ft | 256 kts | 22° |
| 2026-05-08 13:21 | 4.78862 | -74.06453 | 13277 ft | 260 kts | 21° |
| 2026-05-08 13:21 | 4.80604 | -74.05851 | 13656 ft | 277 kts | 21° |
| 2026-05-08 13:21 | 4.82495 | -74.05207 | 14012 ft | 295 kts | 21° |
| 2026-05-08 13:21 | 4.84487 | -74.04532 | 14459 ft | 307 kts | 21° |
| 2026-05-08 13:22 | 4.86536 | -74.03838 | 15068 ft | 315 kts | 21° |
| 2026-05-08 13:22 | 4.88623 | -74.03141 | 15763 ft | 316 kts | 20° |
| 2026-05-08 13:22 | 4.90705 | -74.02452 | 16410 ft | 319 kts | 21° |
| 2026-05-08 13:22 | 4.92837 | -74.01727 | 16981 ft | 326 kts | 20° |
| 2026-05-08 13:23 | 4.95003 | -74.00985 | 17622 ft | 330 kts | 20° |
| 2026-05-08 13:23 | 4.97185 | -74.00241 | 18314 ft | 331 kts | 20° |
| 2026-05-08 13:23 | 4.99363 | -73.99501 | 18834 ft | 337 kts | 20° |
| 2026-05-08 13:23 | 5.01642 | -73.98748 | 19072 ft | 352 kts | 18° |
| 2026-05-08 13:24 | 5.04056 | -73.98093 | 19281 ft | 367 kts | 15° |
| 2026-05-08 13:24 | 5.06576 | -73.97463 | 19498 ft | 379 kts | 15° |
| 2026-05-08 13:24 | 5.09181 | -73.96819 | 19704 ft | 392 kts | 14° |
| 2026-05-08 13:24 | 5.11863 | -73.96156 | 19922 ft | 401 kts | 14° |
| 2026-05-08 13:25 | 5.14594 | -73.95479 | 20188 ft | 407 kts | 14° |
| 2026-05-08 13:25 | 5.17353 | -73.94795 | 20572 ft | 409 kts | 14° |
| 2026-05-08 13:25 | 5.20096 | -73.94113 | 20978 ft | 412 kts | 14° |
| 2026-05-08 13:25 | 5.22896 | -73.93416 | 21382 ft | 415 kts | 14° |
| 2026-05-08 13:26 | 5.25707 | -73.92715 | 21799 ft | 417 kts | 14° |
| 2026-05-08 13:26 | 5.28538 | -73.92011 | 22139 ft | 421 kts | 14° |
| 2026-05-08 13:26 | 5.31391 | -73.91301 | 22563 ft | 423 kts | 14° |
| 2026-05-08 13:26 | 5.34266 | -73.90585 | 22985 ft | 426 kts | 14° |
| 2026-05-08 13:27 | 5.37156 | -73.89866 | 23423 ft | 428 kts | 14° |
| 2026-05-08 13:27 | 5.40055 | -73.89143 | 23820 ft | 431 kts | 14° |
| 2026-05-08 13:27 | 5.42982 | -73.88414 | 24101 ft | 435 kts | 13° |
| 2026-05-08 13:27 | 5.45937 | -73.87679 | 24450 ft | 437 kts | 14° |
| 2026-05-08 13:28 | 5.48866 | -73.86949 | 24776 ft | 440 kts | 14° |
| 2026-05-08 13:28 | 5.51848 | -73.86185 | 25145 ft | 442 kts | 16° |
| 2026-05-08 13:28 | 5.54708 | -73.85016 | 25481 ft | 446 kts | 26° |
| 2026-05-08 13:28 | 5.57451 | -73.83527 | 25805 ft | 448 kts | 29° |
| 2026-05-08 13:29 | 5.60177 | -73.81974 | 26169 ft | 451 kts | 30° |
| 2026-05-08 13:29 | 5.62908 | -73.80412 | 26537 ft | 454 kts | 29° |
| 2026-05-08 13:29 | 5.65676 | -73.78835 | 26857 ft | 458 kts | 29° |
| 2026-05-08 13:29 | 5.68428 | -73.77271 | 27207 ft | 460 kts | 29° |
| 2026-05-08 13:30 | 5.71238 | -73.75676 | 27484 ft | 463 kts | 29° |
| 2026-05-08 13:30 | 5.74046 | -73.74084 | 27836 ft | 465 kts | 29° |
| 2026-05-08 13:30 | 5.76877 | -73.72481 | 28145 ft | 467 kts | 29° |
| 2026-05-08 13:30 | 5.79725 | -73.70869 | 28481 ft | 470 kts | 29° |
| 2026-05-08 13:31 | 5.82559 | -73.69265 | 28821 ft | 472 kts | 29° |
| 2026-05-08 13:31 | 5.85435 | -73.67636 | 29108 ft | 474 kts | 28° |
| 2026-05-08 13:31 | 5.88277 | -73.66027 | 29613 ft | 472 kts | 28° |
| 2026-05-08 13:31 | 5.91155 | -73.64397 | 29988 ft | 473 kts | 28° |
| 2026-05-08 13:32 | 5.94032 | -73.62766 | 30293 ft | 476 kts | 28° |
| 2026-05-08 13:32 | 5.96912 | -73.61130 | 30641 ft | 474 kts | 28° |
| 2026-05-08 13:32 | 5.99762 | -73.59513 | 30935 ft | 474 kts | 28° |
| 2026-05-08 13:32 | 6.02638 | -73.57885 | 31289 ft | 473 kts | 28° |
| 2026-05-08 13:33 | 6.05506 | -73.56261 | 31650 ft | 472 kts | 28° |
| 2026-05-08 13:33 | 6.08366 | -73.54640 | 32031 ft | 471 kts | 28° |
| 2026-05-08 13:33 | 6.11224 | -73.53022 | 32384 ft | 470 kts | 28° |
| 2026-05-08 13:33 | 6.13108 | -73.51955 | 32578 ft | 470 kts | 28° |
| 2026-05-08 13:34 | 6.15956 | -73.50340 | 32920 ft | 470 kts | 28° |
| 2026-05-08 13:34 | 6.18797 | -73.48728 | 33264 ft | 469 kts | 28° |
| 2026-05-08 13:34 | 6.21060 | -73.47443 | 33571 ft | 467 kts | 28° |
| 2026-05-08 13:35 | 6.23818 | -73.45877 | 34084 ft | 461 kts | 28° |
| 2026-05-08 13:35 | 6.26580 | -73.44311 | 34402 ft | 460 kts | 28° |
| 2026-05-08 13:35 | 6.29372 | -73.42722 | 34620 ft | 460 kts | 28° |
| 2026-05-08 13:35 | 6.32166 | -73.41137 | 34837 ft | 461 kts | 28° |
| 2026-05-08 13:36 | 6.34967 | -73.39559 | 35137 ft | 461 kts | 28° |
| 2026-05-08 13:36 | 6.37774 | -73.37977 | 35557 ft | 462 kts | 28° |
| 2026-05-08 13:36 | 6.40536 | -73.36414 | 36012 ft | 460 kts | 28° |
| 2026-05-08 13:36 | 6.43315 | -73.34834 | 36409 ft | 455 kts | 27° |
| 2026-05-08 13:37 | 6.46063 | -73.33276 | 36565 ft | 452 kts | 27° |
| 2026-05-08 13:37 | 6.48377 | -73.31963 | 36571 ft | 457 kts | 28° |
| 2026-05-08 13:37 | 6.48877 | -73.31678 | 36583 ft | 458 kts | 28° |
| 2026-05-08 13:38 | 6.50591 | -73.30701 | 36684 ft | 459 kts | 28° |
| 2026-05-08 13:38 | 6.53335 | -73.29137 | 36919 ft | 458 kts | 28° |
| 2026-05-08 13:38 | 6.56111 | -73.27551 | 37166 ft | 458 kts | 28° |
| 2026-05-08 13:38 | 6.58871 | -73.25980 | 37489 ft | 455 kts | 29° |
| 2026-05-08 13:39 | 6.61629 | -73.24420 | 37863 ft | 454 kts | 28° |
| 2026-05-08 13:39 | 6.64366 | -73.22868 | 38202 ft | 450 kts | 29° |
| 2026-05-08 13:39 | 6.67095 | -73.21316 | 38387 ft | 451 kts | 29° |
| 2026-05-08 13:39 | 6.69832 | -73.19762 | 38575 ft | 450 kts | 28° |
| 2026-05-08 13:40 | 6.75233 | -73.16718 | 38538 ft | 449 kts | 30° |
| 2026-05-08 13:40 | 6.80685 | -73.13555 | 38748 ft | 455 kts | 30° |
| 2026-05-08 13:41 | 6.83416 | -73.11964 | 38952 ft | 452 kts | 28° |
| 2026-05-08 13:41 | 6.86146 | -73.10411 | 38984 ft | 451 kts | 28° |
| 2026-05-08 13:41 | 6.90038 | -73.08233 | 39031 ft | 454 kts | 27° |
| 2026-05-08 13:42 | 6.94906 | -73.05564 | 39032 ft | 446 kts | 27° |
| 2026-05-08 13:42 | 7.00337 | -73.02606 | 39053 ft | 450 kts | 27° |
| 2026-05-08 13:43 | 7.05806 | -72.99590 | 39051 ft | 445 kts | 28° |
| 2026-05-08 13:43 | 7.11273 | -72.96580 | 39055 ft | 449 kts | 27° |
| 2026-05-08 13:44 | 7.16741 | -72.93590 | 39101 ft | 449 kts | 26° |
| 2026-05-08 13:44 | 7.22237 | -72.90575 | 39104 ft | 448 kts | 26° |
| 2026-05-08 13:45 | 7.27727 | -72.87554 | 39103 ft | 450 kts | 27° |
| 2026-05-08 13:45 | 7.33239 | -72.84521 | 39115 ft | 457 kts | 26° |
| 2026-05-08 13:46 | 7.38837 | -72.81442 | 39120 ft | 458 kts | 27° |
| 2026-05-08 13:46 | 7.44430 | -72.78360 | 39126 ft | 457 kts | 27° |
| 2026-05-08 13:47 | 7.49989 | -72.75290 | 39130 ft | 458 kts | 26° |
| 2026-05-08 13:47 | 7.55579 | -72.72206 | 39096 ft | 458 kts | 26° |
| 2026-05-08 13:48 | 7.61173 | -72.69121 | 39096 ft | 457 kts | 26° |
| 2026-05-08 13:48 | 7.66733 | -72.66053 | 39097 ft | 453 kts | 27° |
| 2026-05-08 13:49 | 7.72258 | -72.63002 | 39057 ft | 451 kts | 27° |
| 2026-05-08 13:49 | 7.77746 | -72.59972 | 39069 ft | 451 kts | 27° |
| 2026-05-08 13:50 | 7.83241 | -72.56937 | 39022 ft | 448 kts | 26° |
| 2026-05-08 13:50 | 7.88701 | -72.53922 | 39022 ft | 447 kts | 26° |
| 2026-05-08 13:51 | 7.94154 | -72.50929 | 39022 ft | 447 kts | 25° |
| 2026-05-08 13:51 | 7.99689 | -72.48057 | 39020 ft | 446 kts | 25° |
| 2026-05-08 13:52 | 8.05199 | -72.45259 | 39016 ft | 446 kts | 25° |
| 2026-05-08 13:52 | 8.10756 | -72.42429 | 39001 ft | 446 kts | 25° |
| 2026-05-08 13:53 | 8.16305 | -72.39588 | 38995 ft | 446 kts | 25° |
| 2026-05-08 13:53 | 8.21800 | -72.36741 | 39013 ft | 447 kts | 26° |
| 2026-05-08 13:54 | 8.27260 | -72.33724 | 38987 ft | 447 kts | 27° |
| 2026-05-08 13:54 | 8.32694 | -72.30655 | 38987 ft | 446 kts | 27° |
| 2026-05-08 13:55 | 8.38100 | -72.27612 | 38957 ft | 443 kts | 27° |
| 2026-05-08 13:56 | 8.46152 | -72.23105 | 38978 ft | 441 kts | 27° |
| 2026-05-08 13:56 | 8.51532 | -72.20098 | 38977 ft | 441 kts | 27° |
| 2026-05-08 13:57 | 8.56907 | -72.17092 | 38959 ft | 441 kts | 27° |
| 2026-05-08 13:57 | 8.62248 | -72.14104 | 38960 ft | 441 kts | 27° |
| 2026-05-08 13:58 | 8.67632 | -72.11090 | 38954 ft | 441 kts | 27° |
| 2026-05-08 13:58 | 8.73010 | -72.08078 | 38951 ft | 441 kts | 27° |
| 2026-05-08 13:59 | 8.78342 | -72.05091 | 38956 ft | 441 kts | 27° |
| 2026-05-08 13:59 | 8.83713 | -72.02082 | 38953 ft | 441 kts | 27° |
| 2026-05-08 14:00 | 8.89093 | -71.99066 | 38948 ft | 441 kts | 27° |
| 2026-05-08 14:00 | 8.94435 | -71.96071 | 38949 ft | 441 kts | 27° |
| 2026-05-08 14:01 | 8.99826 | -71.93085 | 38949 ft | 441 kts | 26° |
| 2026-05-08 14:01 | 9.05275 | -71.90219 | 38948 ft | 440 kts | 25° |
| 2026-05-08 14:02 | 9.10696 | -71.87406 | 38951 ft | 440 kts | 25° |
| 2026-05-08 14:02 | 9.16154 | -71.84563 | 38949 ft | 440 kts | 25° |
| 2026-05-08 14:03 | 9.21594 | -71.81717 | 38950 ft | 440 kts | 25° |
| 2026-05-08 14:03 | 9.27018 | -71.78897 | 38944 ft | 438 kts | 25° |
| 2026-05-08 14:04 | 9.32372 | -71.76066 | 38943 ft | 432 kts | 26° |
| 2026-05-08 14:04 | 9.37736 | -71.73247 | 38936 ft | 438 kts | 24° |
| 2026-05-08 14:05 | 9.43210 | -71.70425 | 38685 ft | 441 kts | 25° |
| 2026-05-08 14:05 | 9.45922 | -71.68999 | 38431 ft | 440 kts | 26° |
| 2026-05-08 14:05 | 9.48644 | -71.67559 | 38161 ft | 441 kts | 26° |
| 2026-05-08 14:05 | 9.51374 | -71.66113 | 37897 ft | 442 kts | 26° |
| 2026-05-08 14:06 | 9.54066 | -71.64691 | 37638 ft | 442 kts | 26° |
| 2026-05-08 14:06 | 9.56815 | -71.63243 | 37377 ft | 443 kts | 26° |
| 2026-05-08 14:06 | 9.59555 | -71.61804 | 37126 ft | 443 kts | 26° |
| 2026-05-08 14:06 | 9.62294 | -71.60365 | 36958 ft | 444 kts | 26° |
| 2026-05-08 14:07 | 9.65040 | -71.58921 | 36939 ft | 445 kts | 26° |
| 2026-05-08 14:07 | 9.70548 | -71.56026 | 36942 ft | 446 kts | 26° |
| 2026-05-08 14:08 | 9.76045 | -71.53137 | 36936 ft | 447 kts | 26° |
| 2026-05-08 14:08 | 9.81567 | -71.50229 | 36937 ft | 446 kts | 26° |
| 2026-05-08 14:09 | 9.87062 | -71.47339 | 36938 ft | 446 kts | 26° |
| 2026-05-08 14:09 | 9.92564 | -71.44444 | 36939 ft | 447 kts | 26° |
| 2026-05-08 14:10 | 9.98098 | -71.41533 | 36936 ft | 447 kts | 26° |
| 2026-05-08 14:10 | 10.03617 | -71.38624 | 36941 ft | 447 kts | 25° |
| 2026-05-08 14:11 | 10.09144 | -71.35707 | 36936 ft | 447 kts | 25° |
| 2026-05-08 14:11 | 10.14679 | -71.32787 | 36942 ft | 448 kts | 25° |
| 2026-05-08 14:12 | 10.20183 | -71.29884 | 36938 ft | 449 kts | 25° |
| 2026-05-08 14:12 | 10.25729 | -71.26955 | 36943 ft | 448 kts | 25° |
| 2026-05-08 14:13 | 10.31273 | -71.24026 | 36943 ft | 448 kts | 25° |
| 2026-05-08 14:13 | 10.36784 | -71.21108 | 36941 ft | 449 kts | 26° |
| 2026-05-08 14:14 | 10.42326 | -71.18178 | 36947 ft | 448 kts | 25° |
| 2026-05-08 14:14 | 10.47850 | -71.15262 | 36948 ft | 449 kts | 25° |
| 2026-05-08 14:15 | 10.53407 | -71.12329 | 36948 ft | 449 kts | 25° |
| 2026-05-08 14:15 | 10.58955 | -71.09399 | 36948 ft | 449 kts | 25° |
| 2026-05-08 14:16 | 10.64493 | -71.06471 | 36944 ft | 448 kts | 25° |
| 2026-05-08 14:16 | 10.69994 | -71.03508 | 36951 ft | 449 kts | 27° |
| 2026-05-08 14:17 | 10.75385 | -71.00279 | 36943 ft | 449 kts | 29° |
| 2026-05-08 14:17 | 10.80697 | -70.96986 | 36949 ft | 449 kts | 29° |
| 2026-05-08 14:18 | 10.86047 | -70.93687 | 36951 ft | 449 kts | 29° |
| 2026-05-08 14:18 | 10.91406 | -70.90407 | 36951 ft | 448 kts | 29° |
| 2026-05-08 14:19 | 10.96733 | -70.87157 | 36750 ft | 448 kts | 28° |
| 2026-05-08 14:19 | 10.99408 | -70.85524 | 36503 ft | 448 kts | 29° |
| 2026-05-08 14:19 | 11.02089 | -70.83887 | 36254 ft | 449 kts | 29° |
| 2026-05-08 14:19 | 11.04770 | -70.82250 | 36014 ft | 450 kts | 28° |
| 2026-05-08 14:20 | 11.07462 | -70.80608 | 35795 ft | 449 kts | 29° |
| 2026-05-08 14:20 | 11.10106 | -70.78994 | 35548 ft | 449 kts | 29° |
| 2026-05-08 14:20 | 11.12791 | -70.77353 | 35313 ft | 450 kts | 29° |
| 2026-05-08 14:20 | 11.14579 | -70.76260 | 35160 ft | 450 kts | 29° |
| 2026-05-08 14:21 | 11.17274 | -70.74610 | 34930 ft | 451 kts | 29° |
| 2026-05-08 14:21 | 11.19972 | -70.72960 | 34701 ft | 451 kts | 29° |
| 2026-05-08 14:21 | 11.22666 | -70.71315 | 34476 ft | 452 kts | 29° |
| 2026-05-08 14:21 | 11.25367 | -70.69662 | 34247 ft | 453 kts | 29° |
| 2026-05-08 14:22 | 11.28068 | -70.68007 | 33629 ft | 453 kts | 29° |
| 2026-05-08 14:22 | 11.30754 | -70.66364 | 32802 ft | 457 kts | 30° |
| 2026-05-08 14:22 | 11.33489 | -70.64691 | 31958 ft | 460 kts | 30° |
| 2026-05-08 14:22 | 11.36248 | -70.63004 | 31107 ft | 465 kts | 30° |
| 2026-05-08 14:23 | 11.39030 | -70.61298 | 30307 ft | 468 kts | 30° |
| 2026-05-08 14:23 | 11.41797 | -70.59601 | 29930 ft | 457 kts | 31° |
| 2026-05-08 14:23 | 11.44499 | -70.57942 | 28971 ft | 450 kts | 31° |
| 2026-05-08 14:23 | 11.47197 | -70.56291 | 27823 ft | 450 kts | 31° |
| 2026-05-08 14:24 | 11.49854 | -70.54700 | 27110 ft | 446 kts | 30° |
| 2026-05-08 14:24 | 11.52532 | -70.53123 | 26444 ft | 443 kts | 30° |
| 2026-05-08 14:24 | 11.55209 | -70.51562 | 25793 ft | 440 kts | 30° |
| 2026-05-08 14:24 | 11.57862 | -70.50020 | 25147 ft | 438 kts | 30° |
| 2026-05-08 14:25 | 11.60511 | -70.48476 | 24496 ft | 435 kts | 30° |
| 2026-05-08 14:25 | 11.63134 | -70.46943 | 23835 ft | 433 kts | 31° |
| 2026-05-08 14:25 | 11.65741 | -70.45416 | 23174 ft | 430 kts | 31° |
| 2026-05-08 14:25 | 11.68293 | -70.43911 | 22438 ft | 427 kts | 31° |
| 2026-05-08 14:26 | 11.70846 | -70.42386 | 21737 ft | 424 kts | 31° |
| 2026-05-08 14:26 | 11.73383 | -70.40866 | 21096 ft | 419 kts | 31° |
| 2026-05-08 14:26 | 11.75881 | -70.39369 | 20461 ft | 415 kts | 31° |
| 2026-05-08 14:26 | 11.78362 | -70.37884 | 19810 ft | 411 kts | 31° |
| 2026-05-08 14:27 | 11.80822 | -70.36410 | 19166 ft | 408 kts | 31° |
| 2026-05-08 14:27 | 11.83264 | -70.34947 | 18556 ft | 404 kts | 32° |
| 2026-05-08 14:27 | 11.85664 | -70.33508 | 17830 ft | 403 kts | 32° |
| 2026-05-08 14:27 | 11.88074 | -70.32066 | 17241 ft | 398 kts | 31° |
| 2026-05-08 14:28 | 11.90448 | -70.30643 | 16570 ft | 394 kts | 31° |
| 2026-05-08 14:28 | 11.92804 | -70.29231 | 15994 ft | 388 kts | 32° |
| 2026-05-08 14:28 | 11.95135 | -70.27836 | 15322 ft | 385 kts | 31° |
| 2026-05-08 14:28 | 11.97429 | -70.26461 | 14770 ft | 379 kts | 32° |
| 2026-05-08 14:29 | 11.99700 | -70.25097 | 14131 ft | 376 kts | 32° |
| 2026-05-08 14:29 | 12.01949 | -70.23746 | 13503 ft | 372 kts | 32° |
| 2026-05-08 14:29 | 12.04147 | -70.22428 | 12867 ft | 368 kts | 32° |
| 2026-05-08 14:29 | 12.06347 | -70.21108 | 12276 ft | 363 kts | 32° |
| 2026-05-08 14:30 | 12.08517 | -70.19805 | 11702 ft | 359 kts | 32° |
| 2026-05-08 14:30 | 12.10653 | -70.18522 | 11152 ft | 354 kts | 32° |
| 2026-05-08 14:30 | 12.12750 | -70.17263 | 10787 ft | 343 kts | 32° |
| 2026-05-08 14:30 | 12.14734 | -70.16071 | 10703 ft | 326 kts | 32° |
| 2026-05-08 14:31 | 12.16647 | -70.14922 | 10593 ft | 311 kts | 32° |
| 2026-05-08 14:31 | 12.18468 | -70.13829 | 10477 ft | 297 kts | 33° |
| 2026-05-08 14:31 | 12.20217 | -70.12781 | 10297 ft | 286 kts | 32° |
| 2026-05-08 14:32 | 12.23665 | -70.10704 | 9322 ft | 288 kts | 33° |
| 2026-05-08 14:32 | 12.25389 | -70.09672 | 8902 ft | 285 kts | 33° |
| 2026-05-08 14:32 | 12.27097 | -70.08644 | 8536 ft | 282 kts | 34° |
| 2026-05-08 14:32 | 12.28811 | -70.07679 | 8156 ft | 282 kts | 25° |
| 2026-05-08 14:33 | 12.30726 | -70.07230 | 7742 ft | 288 kts | 3° |
| 2026-05-08 14:33 | 12.32660 | -70.07686 | 7366 ft | 293 kts | 334° |
| 2026-05-08 14:33 | 12.34340 | -70.08871 | 6992 ft | 295 kts | 323° |
| 2026-05-08 14:33 | 12.35909 | -70.10227 | 6608 ft | 295 kts | 321° |
| 2026-05-08 14:34 | 12.37452 | -70.11600 | 6211 ft | 293 kts | 321° |
| 2026-05-08 14:34 | 12.38991 | -70.12969 | 5837 ft | 290 kts | 322° |
| 2026-05-08 14:34 | 12.40525 | -70.14318 | 5463 ft | 290 kts | 322° |
| 2026-05-08 14:34 | 12.42008 | -70.15720 | 5074 ft | 293 kts | 313° |
| 2026-05-08 14:35 | 12.43038 | -70.17519 | 4693 ft | 294 kts | 293° |
| 2026-05-08 14:35 | 12.43721 | -70.19457 | 4315 ft | 294 kts | 288° |
| 2026-05-08 14:35 | 12.44467 | -70.21405 | 4046 ft | 294 kts | 302° |
| 2026-05-08 14:35 | 12.45840 | -70.22910 | 3980 ft | 287 kts | 332° |
| 2026-05-08 14:36 | 12.47685 | -70.23516 | 3975 ft | 273 kts | 2° |
| 2026-05-08 14:36 | 12.49492 | -70.23332 | 3961 ft | 249 kts | 17° |
| 2026-05-08 14:36 | 12.51089 | -70.22953 | 4005 ft | 227 kts | 23° |
| 2026-05-08 14:36 | 12.52461 | -70.22357 | 3987 ft | 201 kts | 39° |
| 2026-05-08 14:37 | 12.53456 | -70.21453 | 3728 ft | 186 kts | 58° |
| 2026-05-08 14:37 | 12.54052 | -70.20302 | 3398 ft | 181 kts | 77° |
| 2026-05-08 14:37 | 12.54214 | -70.19067 | 3100 ft | 173 kts | 94° |
| 2026-05-08 14:37 | 12.54030 | -70.17851 | 2862 ft | 172 kts | 103° |
| 2026-05-08 14:38 | 12.53762 | -70.16700 | 2639 ft | 161 kts | 104° |
| 2026-05-08 14:38 | 12.53509 | -70.15646 | 2460 ft | 146 kts | 104° |
| 2026-05-08 14:38 | 12.53277 | -70.14679 | 2284 ft | 133 kts | 104° |
| 2026-05-08 14:38 | 12.53061 | -70.13758 | 2123 ft | 132 kts | 104° |
| 2026-05-08 14:39 | 12.52840 | -70.12838 | 1940 ft | 133 kts | 104° |
| 2026-05-08 14:39 | 12.52620 | -70.11917 | 1777 ft | 132 kts | 103° |
| 2026-05-08 14:39 | 12.52402 | -70.11000 | 1612 ft | 134 kts | 103° |
| 2026-05-08 14:39 | 12.52188 | -70.10101 | 1428 ft | 133 kts | 103° |
| 2026-05-08 14:40 | 12.51968 | -70.09185 | 1257 ft | 131 kts | 104° |
| 2026-05-08 14:40 | 12.51749 | -70.08278 | 1082 ft | 132 kts | 104° |
| 2026-05-08 14:40 | 12.51511 | -70.07367 | 939 ft | 133 kts | 104° |
| 2026-05-08 14:40 | 12.51304 | -70.06444 | 738 ft | 132 kts | 104° |
| 2026-05-08 14:41 | 12.51099 | -70.05539 | 591 ft | 133 kts | 106° |
| 2026-05-08 14:41 | 12.50874 | -70.04620 | 414 ft | 133 kts | 107° |
| 2026-05-08 14:41 | 12.50657 | -70.03708 | 244 ft | 130 kts | 103° |
| 2026-05-08 14:41 | 12.50449 | -70.02822 | 82 ft | 125 kts | 104° |
| 2026-05-08 14:42 | 12.50252 | -70.02009 | 42 ft | 103 kts | 104° |
| 2026-05-08 14:42 | 12.50107 | -70.01393 | 48 ft | 74 kts | 104° |
| 2026-05-08 14:42 | 12.50032 | -70.01073 | 53 ft | 23 kts | 103° |
| 2026-05-08 14:42 | 12.50070 | -70.01010 | 53 ft | 8 kts | 13° |
| 2026-05-08 14:43 | 12.50116 | -70.00998 | 51 ft | 7 kts | 11° |
| 2026-05-08 14:43 | 12.50141 | -70.00992 | 48 ft | 2 kts | 12° |
| 2026-05-08 14:43 | 12.50170 | -70.00985 | 50 ft | 7 kts | 13° |
| 2026-05-08 14:43 | 12.50218 | -70.00965 | 48 ft | 8 kts | 45° |
| 2026-05-08 14:44 | 12.50226 | -70.00912 | 47 ft | 8 kts | 103° |
| 2026-05-08 14:44 | 12.50212 | -70.00853 | 47 ft | 9 kts | 103° |
| 2026-05-08 14:44 | 12.50201 | -70.00808 | 50 ft | 3 kts | 103° |
| 2026-05-08 14:44 | 12.50221 | -70.00772 | 50 ft | 4 kts | 17° |
| 2026-05-08 14:45 | 12.50247 | -70.00767 | 49 ft | 3 kts | 10° |
| 2026-05-08 14:45 | 12.50265 | -70.00763 | 49 ft | 3 kts | 14° |
| 2026-05-08 14:45 | 12.50272 | -70.00761 | 49 ft | 2 kts | 14° |
| 2026-05-08 14:45 | 12.50279 | -70.00759 | 49 ft | 1 kts | 14° |